createdAt,value
2022-11-28T00:01:12.175Z,0.00
2022-11-28T00:06:12.105Z,0.00
2022-11-28T00:11:12.044Z,0.00
2022-11-28T00:16:11.997Z,0.00
2022-11-28T00:21:11.914Z,0.00
2022-11-28T00:26:11.842Z,0.00
2022-11-28T00:31:11.791Z,0.00
2022-11-28T00:36:11.714Z,0.00
2022-11-28T00:41:11.680Z,0.00
2022-11-28T00:46:11.733Z,0.00
2022-11-28T00:51:11.533Z,0.00
2022-11-28T00:56:11.462Z,0.00
2022-11-28T01:01:11.553Z,0.00
2022-11-28T01:06:11.345Z,0.00
2022-11-28T01:11:11.281Z,0.00
2022-11-28T01:16:11.276Z,0.00
2022-11-28T01:21:11.153Z,0.00
2022-11-28T01:26:11.076Z,0.00
2022-11-28T01:31:11.063Z,0.00
2022-11-28T01:36:10.943Z,0.00
2022-11-28T01:41:10.885Z,0.00
2022-11-28T01:46:11.009Z,0.00
2022-11-28T01:51:10.758Z,0.00
2022-11-28T01:56:10.683Z,0.00
2022-11-28T02:01:10.676Z,0.00
2022-11-28T02:06:10.556Z,0.00
2022-11-28T02:11:10.496Z,0.00
2022-11-28T02:16:10.584Z,0.00
2022-11-28T02:21:10.581Z,0.00
2022-11-28T02:26:10.601Z,0.00
2022-11-28T02:31:10.671Z,0.00
2022-11-28T02:36:10.622Z,0.00
2022-11-28T02:41:10.675Z,0.00
2022-11-28T02:46:10.044Z,0.00
2022-11-28T02:51:09.998Z,0.00
2022-11-28T02:56:09.927Z,0.00
2022-11-28T03:01:09.908Z,0.00
2022-11-28T03:06:09.794Z,0.00
2022-11-28T03:11:09.726Z,0.00
2022-11-28T03:16:09.732Z,0.00
2022-11-28T03:21:09.593Z,0.00
2022-11-28T03:26:09.531Z,0.00
2022-11-28T03:31:09.544Z,0.00
2022-11-28T03:36:09.394Z,0.00
2022-11-28T03:41:09.334Z,0.00
2022-11-28T03:46:09.263Z,0.00
2022-11-28T03:51:09.207Z,0.00
2022-11-28T03:56:09.323Z,0.00
2022-11-28T04:01:09.107Z,0.00
2022-11-28T04:06:09.007Z,0.00
2022-11-28T04:11:08.951Z,0.00
2022-11-28T04:16:08.914Z,0.00
2022-11-28T04:21:08.831Z,0.00
2022-11-28T04:26:08.815Z,0.00
2022-11-28T04:31:08.834Z,0.00
2022-11-28T04:36:08.626Z,0.00
2022-11-28T04:41:08.567Z,0.00
2022-11-28T04:46:08.577Z,0.00
2022-11-28T04:51:08.434Z,0.00
2022-11-28T04:56:08.362Z,0.00
2022-11-28T05:01:08.405Z,0.00
2022-11-28T05:06:08.229Z,0.00
2022-11-28T05:11:08.170Z,0.00
2022-11-28T05:16:08.159Z,0.00
2022-11-28T05:21:08.039Z,0.00
2022-11-28T05:26:07.966Z,0.00
2022-11-28T05:31:08.017Z,0.00
2022-11-28T05:36:12.569Z,0.00
2022-11-28T05:41:07.783Z,0.00
2022-11-28T05:46:07.761Z,0.00
2022-11-28T05:51:07.639Z,0.00
2022-11-28T05:56:07.573Z,0.00
2022-11-28T06:01:07.521Z,0.00
2022-11-28T06:06:07.432Z,0.00
2022-11-28T06:11:07.371Z,0.00
2022-11-28T06:16:07.365Z,0.00
2022-11-28T06:21:07.237Z,0.00
2022-11-28T06:26:07.163Z,4.00
2022-11-28T06:31:07.104Z,12.00
2022-11-28T06:36:07.031Z,24.00
2022-11-28T06:41:06.970Z,44.00
2022-11-28T06:46:07.043Z,72.00
2022-11-28T06:51:06.838Z,116.00
2022-11-28T06:56:06.766Z,192.00
2022-11-28T07:01:06.759Z,316.00
2022-11-28T07:06:06.631Z,452.00
2022-11-28T07:11:06.576Z,512.00
2022-11-28T07:16:06.740Z,584.00
2022-11-28T07:21:06.449Z,696.00
2022-11-28T07:26:06.378Z,868.00
2022-11-28T07:31:06.318Z,1056.00
2022-11-28T07:36:06.248Z,1256.00
2022-11-28T07:41:06.191Z,1512.00
2022-11-28T07:46:06.213Z,1708.00
2022-11-28T07:51:06.058Z,1940.00
2022-11-28T07:56:05.988Z,2152.00
2022-11-28T08:01:05.929Z,2484.00
2022-11-28T08:06:05.857Z,3020.00
2022-11-28T08:11:05.798Z,3036.00
2022-11-28T08:16:05.749Z,3056.00
2022-11-28T08:21:05.666Z,3128.00
2022-11-28T08:26:05.595Z,3172.00
2022-11-28T08:31:05.576Z,4084.00
2022-11-28T08:36:05.459Z,5000.00
2022-11-28T08:41:05.401Z,5040.00
2022-11-28T08:46:05.371Z,4976.00
2022-11-28T08:51:05.268Z,4592.00
2022-11-28T08:56:05.193Z,3704.00
2022-11-28T09:01:05.190Z,2768.00
2022-11-28T09:06:05.062Z,2256.00
2022-11-28T09:11:05.004Z,2204.00
2022-11-28T09:16:04.936Z,2212.00
2022-11-28T09:21:04.874Z,2136.00
2022-11-28T09:26:04.799Z,2108.00
2022-11-28T09:31:04.834Z,2164.00
2022-11-28T09:36:04.665Z,2308.00
2022-11-28T09:41:04.608Z,2504.00
2022-11-28T09:46:04.604Z,2896.00
2022-11-28T09:51:04.474Z,3128.00
2022-11-28T09:56:04.454Z,3460.00
2022-11-28T10:01:04.340Z,3816.00
2022-11-28T10:06:04.265Z,4324.00
2022-11-28T10:11:04.217Z,4768.00
2022-11-28T10:16:04.132Z,5296.00
2022-11-28T10:21:04.076Z,5232.00
2022-11-28T10:26:03.998Z,5268.00
2022-11-28T10:31:04.004Z,5468.00
2022-11-28T10:36:03.863Z,5452.00
2022-11-28T10:41:03.818Z,5500.00
2022-11-28T10:46:03.848Z,5808.00
2022-11-28T10:51:03.735Z,6040.00
2022-11-28T10:56:08.453Z,6096.00
2022-11-28T11:01:03.589Z,6092.00
2022-11-28T11:06:03.469Z,6348.00
2022-11-28T11:11:03.413Z,6744.00
2022-11-28T11:16:03.420Z,6544.00
2022-11-28T11:21:03.282Z,6052.00
2022-11-28T11:26:03.212Z,5872.00
2022-11-28T11:31:03.268Z,5604.00
2022-11-28T11:36:03.080Z,5264.00
2022-11-28T11:41:03.020Z,5012.00
2022-11-28T11:46:03.010Z,4932.00
2022-11-28T11:51:02.890Z,4700.00
2022-11-28T11:56:02.837Z,4504.00
2022-11-28T12:01:02.760Z,4188.00
2022-11-28T12:06:18.103Z,4172.00
2022-11-28T12:11:03.659Z,4104.00
2022-11-28T12:16:02.627Z,3876.00
2022-11-28T12:21:02.499Z,3644.00
2022-11-28T12:26:02.425Z,3516.00
2022-11-28T12:31:02.443Z,3336.00
2022-11-28T12:36:03.392Z,3320.00
2022-11-28T12:41:02.237Z,3492.00
2022-11-28T12:46:02.197Z,3572.00
2022-11-28T12:51:02.107Z,3644.00
2022-11-28T12:56:02.034Z,3600.00
2022-11-28T13:01:01.977Z,3332.00
2022-11-28T13:06:01.904Z,2868.00
2022-11-28T13:11:01.848Z,2396.00
2022-11-28T13:16:01.829Z,2088.00
2022-11-28T13:21:01.741Z,1852.00
2022-11-28T13:26:01.642Z,1652.00
2022-11-28T13:31:01.633Z,1612.00
2022-11-28T13:36:01.582Z,1776.00
2022-11-28T13:41:01.455Z,1868.00
2022-11-28T13:46:01.383Z,1920.00
2022-11-28T13:51:01.325Z,1944.00
2022-11-28T13:56:01.255Z,1864.00
2022-11-28T14:01:01.343Z,1764.00
2022-11-28T14:06:01.120Z,1708.00
2022-11-28T14:11:01.064Z,1568.00
2022-11-28T14:16:01.034Z,1384.00
2022-11-28T14:21:00.933Z,1160.00
2022-11-28T14:26:00.859Z,948.00
2022-11-28T14:31:00.827Z,744.00
2022-11-28T14:36:00.730Z,568.00
2022-11-28T14:41:00.670Z,432.00
2022-11-28T14:46:00.598Z,332.00
2022-11-28T14:51:02.271Z,248.00
2022-11-28T14:56:00.468Z,188.00
2022-11-28T15:01:00.409Z,144.00
2022-11-28T15:06:00.336Z,112.00
2022-11-28T15:11:00.277Z,76.00
2022-11-28T15:16:00.298Z,48.00
2022-11-28T15:21:00.148Z,24.00
2022-11-28T15:26:00.090Z,12.00
2022-11-28T15:31:00.052Z,8.00
2022-11-28T15:35:59.941Z,0.00
2022-11-28T15:40:59.887Z,0.00
2022-11-28T15:45:59.812Z,0.00
2022-11-28T15:50:59.748Z,0.00
2022-11-28T15:55:59.677Z,0.00
2022-11-28T16:00:59.651Z,0.00
2022-11-28T16:05:59.561Z,0.00
2022-11-28T16:10:59.485Z,0.00
2022-11-28T16:15:59.470Z,0.00
2022-11-28T16:20:59.348Z,0.00
2022-11-28T16:25:59.289Z,0.00
2022-11-28T16:30:59.215Z,0.00
2022-11-28T16:35:59.153Z,0.00
2022-11-28T16:40:59.080Z,0.00
2022-11-28T16:45:59.086Z,0.00
2022-11-28T16:50:58.951Z,0.00
2022-11-28T16:55:58.890Z,0.00
2022-11-28T17:00:58.866Z,0.00
2022-11-28T17:05:58.766Z,0.00
2022-11-28T17:10:58.681Z,0.00
2022-11-28T17:15:58.695Z,0.00
2022-11-28T17:20:58.549Z,0.00
2022-11-28T17:25:58.489Z,0.00
2022-11-28T17:30:58.418Z,0.00
2022-11-28T17:35:58.356Z,0.00
2022-11-28T17:40:58.283Z,0.00
2022-11-28T17:45:58.311Z,0.00
2022-11-28T17:50:58.152Z,0.00
2022-11-28T17:55:58.094Z,0.00
2022-11-28T18:01:00.709Z,0.00
2022-11-28T18:05:57.968Z,0.00
2022-11-28T18:10:57.887Z,0.00
2022-11-28T18:15:57.827Z,0.00
2022-11-28T18:20:57.753Z,0.00
2022-11-28T18:25:57.695Z,0.00
2022-11-28T18:30:57.621Z,0.00
2022-11-28T18:35:57.563Z,0.00
2022-11-28T18:40:57.491Z,0.00
2022-11-28T18:45:57.474Z,0.00
2022-11-28T18:50:57.354Z,0.00
2022-11-28T18:55:57.305Z,0.00
2022-11-28T19:00:57.286Z,0.00
2022-11-28T19:05:57.163Z,0.00
2022-11-28T19:10:57.087Z,0.00
2022-11-28T19:15:57.027Z,0.00
2022-11-28T19:20:56.952Z,0.00
2022-11-28T19:25:56.894Z,0.00
2022-11-28T19:30:56.820Z,0.00
2022-11-28T19:35:56.763Z,0.00
2022-11-28T19:40:56.684Z,0.00
2022-11-28T19:45:56.749Z,0.00
2022-11-28T19:50:56.555Z,0.00
2022-11-28T19:55:56.506Z,0.00
2022-11-28T20:00:56.472Z,0.00
2022-11-28T20:05:56.365Z,0.00
2022-11-28T20:10:56.292Z,0.00
2022-11-28T20:15:56.229Z,0.00
2022-11-28T20:20:56.159Z,0.00
2022-11-28T20:25:56.098Z,0.00
2022-11-28T20:30:56.023Z,0.00
2022-11-28T20:35:59.871Z,0.00
2022-11-28T20:40:55.890Z,0.00
2022-11-28T20:45:55.885Z,0.00
2022-11-28T20:50:55.755Z,0.00
2022-11-28T20:55:55.699Z,0.00
2022-11-28T21:00:55.650Z,0.00
2022-11-28T21:06:00.894Z,0.00
2022-11-28T21:10:55.493Z,0.00
2022-11-28T21:15:55.431Z,0.00
2022-11-28T21:20:55.356Z,0.00
2022-11-28T21:25:55.298Z,0.00
2022-11-28T21:30:55.223Z,0.00
2022-11-28T21:35:55.165Z,0.00
2022-11-28T21:40:55.092Z,0.00
2022-11-28T21:45:55.100Z,0.00
2022-11-28T21:50:54.955Z,0.00
2022-11-28T21:55:54.901Z,0.00
2022-11-28T22:00:54.823Z,0.00
2022-11-28T22:05:54.766Z,0.00
2022-11-28T22:10:54.692Z,0.00
2022-11-28T22:15:54.657Z,0.00
2022-11-28T22:20:54.558Z,0.00
2022-11-28T22:25:54.505Z,0.00
2022-11-28T22:30:54.426Z,0.00
2022-11-28T22:35:54.368Z,0.00
2022-11-28T22:40:54.295Z,0.00
2022-11-28T22:45:54.281Z,0.00
2022-11-28T22:50:54.160Z,0.00
2022-11-28T22:55:54.101Z,0.00
2022-11-28T23:00:54.027Z,0.00
2022-11-28T23:05:53.971Z,0.00
2022-11-28T23:10:53.894Z,0.00
2022-11-28T23:15:53.839Z,0.00
2022-11-28T23:20:53.765Z,0.00
2022-11-28T23:25:53.707Z,0.00
2022-11-28T23:30:53.631Z,0.00
2022-11-28T23:35:53.574Z,0.00
2022-11-28T23:40:53.502Z,0.00
2022-11-28T23:45:53.496Z,0.00
2022-11-28T23:50:53.366Z,0.00
2022-11-28T23:55:53.305Z,0.00
